sensor_id;sensor_type;location;lat;lon;timestamp;P1;durP1;ratioP1;P2;durP2;ratioP2
14528;SDS011;7351;51.194;4.098;2022-08-19T00:00:30;56.83;;;52.83;;
14528;SDS011;7351;51.194;4.098;2022-08-19T00:02:58;58.70;;;54.40;;
14528;SDS011;7351;51.194;4.098;2022-08-19T00:05:25;62.60;;;57.80;;
14528;SDS011;7351;51.194;4.098;2022-08-19T00:07:52;60.87;;;56.20;;
14528;SDS011;7351;51.194;4.098;2022-08-19T00:10:20;57.20;;;53.20;;
14528;SDS011;7351;51.194;4.098;2022-08-19T00:12:47;58.90;;;54.40;;
14528;SDS011;7351;51.194;4.098;2022-08-19T00:15:15;59.50;;;55.00;;
14528;SDS011;7351;51.194;4.098;2022-08-19T00:17:44;61.93;;;57.13;;
14528;SDS011;7351;51.194;4.098;2022-08-19T00:20:13;58.43;;;54.03;;
14528;SDS011;7351;51.194;4.098;2022-08-19T00:22:43;59.53;;;55.03;;
14528;SDS011;7351;51.194;4.098;2022-08-19T00:25:11;60.13;;;55.87;;
14528;SDS011;7351;51.194;4.098;2022-08-19T00:27:38;66.00;;;60.70;;
14528;SDS011;7351;51.194;4.098;2022-08-19T00:30:07;63.43;;;58.83;;
14528;SDS011;7351;51.194;4.098;2022-08-19T00:32:35;64.03;;;58.93;;
14528;SDS011;7351;51.194;4.098;2022-08-19T00:35:04;63.73;;;59.23;;
14528;SDS011;7351;51.194;4.098;2022-08-19T00:37:33;63.07;;;58.30;;
14528;SDS011;7351;51.194;4.098;2022-08-19T00:40:02;63.17;;;58.47;;
14528;SDS011;7351;51.194;4.098;2022-08-19T00:42:31;63.10;;;58.20;;
14528;SDS011;7351;51.194;4.098;2022-08-19T00:44:59;63.90;;;59.33;;
14528;SDS011;7351;51.194;4.098;2022-08-19T00:47:26;60.90;;;56.57;;
14528;SDS011;7351;51.194;4.098;2022-08-19T00:49:53;60.27;;;55.50;;
14528;SDS011;7351;51.194;4.098;2022-08-19T00:52:26;59.57;;;55.17;;
14528;SDS011;7351;51.194;4.098;2022-08-19T00:54:56;61.30;;;56.67;;
14528;SDS011;7351;51.194;4.098;2022-08-19T00:57:25;61.20;;;56.63;;
14528;SDS011;7351;51.194;4.098;2022-08-19T00:59:56;60.57;;;56.00;;
14528;SDS011;7351;51.194;4.098;2022-08-19T01:02:24;65.83;;;60.83;;
14528;SDS011;7351;51.194;4.098;2022-08-19T01:04:56;63.53;;;58.87;;
14528;SDS011;7351;51.194;4.098;2022-08-19T01:07:23;66.63;;;61.03;;
14528;SDS011;7351;51.194;4.098;2022-08-19T01:09:50;62.90;;;57.73;;
14528;SDS011;7351;51.194;4.098;2022-08-19T01:12:19;63.67;;;58.80;;
14528;SDS011;7351;51.194;4.098;2022-08-19T01:14:47;65.97;;;60.93;;
14528;SDS011;7351;51.194;4.098;2022-08-19T01:17:15;69.10;;;63.50;;
14528;SDS011;7351;51.194;4.098;2022-08-19T01:19:43;66.10;;;60.83;;
14528;SDS011;7351;51.194;4.098;2022-08-19T01:22:15;70.60;;;64.77;;
14528;SDS011;7351;51.194;4.098;2022-08-19T01:24:49;69.97;;;64.37;;
14528;SDS011;7351;51.194;4.098;2022-08-19T01:27:17;67.10;;;61.63;;
14528;SDS011;7351;51.194;4.098;2022-08-19T01:29:45;68.10;;;62.87;;
14528;SDS011;7351;51.194;4.098;2022-08-19T01:32:14;68.07;;;62.20;;
14528;SDS011;7351;51.194;4.098;2022-08-19T01:34:42;67.00;;;61.50;;
14528;SDS011;7351;51.194;4.098;2022-08-19T01:37:11;62.43;;;57.47;;
14528;SDS011;7351;51.194;4.098;2022-08-19T01:39:40;61.53;;;56.07;;
14528;SDS011;7351;51.194;4.098;2022-08-19T01:42:09;61.80;;;56.83;;
14528;SDS011;7351;51.194;4.098;2022-08-19T01:44:37;58.60;;;53.83;;
14528;SDS011;7351;51.194;4.098;2022-08-19T01:47:05;59.87;;;55.00;;
14528;SDS011;7351;51.194;4.098;2022-08-19T01:49:34;58.40;;;53.70;;
14528;SDS011;7351;51.194;4.098;2022-08-19T01:52:01;55.47;;;51.03;;
14528;SDS011;7351;51.194;4.098;2022-08-19T01:54:29;53.37;;;48.57;;
14528;SDS011;7351;51.194;4.098;2022-08-19T01:56:58;52.00;;;47.80;;
14528;SDS011;7351;51.194;4.098;2022-08-19T01:59:28;54.17;;;49.83;;
14528;SDS011;7351;51.194;4.098;2022-08-19T02:01:57;51.80;;;47.67;;
14528;SDS011;7351;51.194;4.098;2022-08-19T02:04:29;54.47;;;49.77;;
14528;SDS011;7351;51.194;4.098;2022-08-19T02:06:57;55.80;;;50.67;;
14528;SDS011;7351;51.194;4.098;2022-08-19T02:09:24;53.70;;;49.10;;
14528;SDS011;7351;51.194;4.098;2022-08-19T02:11:51;55.00;;;50.17;;
14528;SDS011;7351;51.194;4.098;2022-08-19T02:14:18;52.03;;;47.80;;
14528;SDS011;7351;51.194;4.098;2022-08-19T02:16:46;53.80;;;49.33;;
14528;SDS011;7351;51.194;4.098;2022-08-19T02:19:14;54.60;;;50.23;;
14528;SDS011;7351;51.194;4.098;2022-08-19T02:21:41;54.23;;;49.37;;
14528;SDS011;7351;51.194;4.098;2022-08-19T02:24:08;52.20;;;47.77;;
14528;SDS011;7351;51.194;4.098;2022-08-19T02:26:36;50.47;;;46.47;;
14528;SDS011;7351;51.194;4.098;2022-08-19T02:29:03;53.87;;;49.37;;
14528;SDS011;7351;51.194;4.098;2022-08-19T02:31:30;53.43;;;48.47;;
14528;SDS011;7351;51.194;4.098;2022-08-19T02:34:00;55.83;;;51.07;;
14528;SDS011;7351;51.194;4.098;2022-08-19T02:36:27;55.37;;;50.73;;
14528;SDS011;7351;51.194;4.098;2022-08-19T02:38:55;58.00;;;53.10;;
14528;SDS011;7351;51.194;4.098;2022-08-19T02:41:22;57.40;;;51.63;;
14528;SDS011;7351;51.194;4.098;2022-08-19T02:43:53;56.77;;;52.00;;
14528;SDS011;7351;51.194;4.098;2022-08-19T02:46:21;56.00;;;51.40;;
14528;SDS011;7351;51.194;4.098;2022-08-19T02:48:53;57.80;;;52.67;;
14528;SDS011;7351;51.194;4.098;2022-08-19T02:51:23;57.23;;;52.27;;
14528;SDS011;7351;51.194;4.098;2022-08-19T02:53:52;58.10;;;53.37;;
14528;SDS011;7351;51.194;4.098;2022-08-19T02:56:19;55.03;;;50.37;;
14528;SDS011;7351;51.194;4.098;2022-08-19T02:58:47;58.43;;;53.37;;
14528;SDS011;7351;51.194;4.098;2022-08-19T03:01:19;55.10;;;50.07;;
14528;SDS011;7351;51.194;4.098;2022-08-19T03:03:47;55.80;;;51.20;;
14528;SDS011;7351;51.194;4.098;2022-08-19T03:06:15;58.67;;;53.23;;
14528;SDS011;7351;51.194;4.098;2022-08-19T03:08:44;54.27;;;49.37;;
14528;SDS011;7351;51.194;4.098;2022-08-19T03:11:14;55.17;;;50.03;;
14528;SDS011;7351;51.194;4.098;2022-08-19T03:13:45;54.30;;;49.13;;
14528;SDS011;7351;51.194;4.098;2022-08-19T03:16:14;55.20;;;50.63;;
14528;SDS011;7351;51.194;4.098;2022-08-19T03:18:42;54.27;;;49.80;;
14528;SDS011;7351;51.194;4.098;2022-08-19T03:21:09;55.57;;;50.43;;
14528;SDS011;7351;51.194;4.098;2022-08-19T03:23:41;52.33;;;48.13;;
14528;SDS011;7351;51.194;4.098;2022-08-19T03:26:09;53.17;;;48.13;;
14528;SDS011;7351;51.194;4.098;2022-08-19T03:28:37;53.83;;;49.10;;
14528;SDS011;7351;51.194;4.098;2022-08-19T03:31:04;50.23;;;45.90;;
14528;SDS011;7351;51.194;4.098;2022-08-19T03:33:34;49.33;;;44.87;;
14528;SDS011;7351;51.194;4.098;2022-08-19T03:36:03;50.70;;;46.23;;
14528;SDS011;7351;51.194;4.098;2022-08-19T03:38:33;48.93;;;44.30;;
14528;SDS011;7351;51.194;4.098;2022-08-19T03:41:04;47.10;;;42.77;;
14528;SDS011;7351;51.194;4.098;2022-08-19T03:43:35;47.93;;;43.40;;
14528;SDS011;7351;51.194;4.098;2022-08-19T03:46:06;47.13;;;43.07;;
14528;SDS011;7351;51.194;4.098;2022-08-19T03:48:35;48.60;;;44.40;;
14528;SDS011;7351;51.194;4.098;2022-08-19T03:51:03;47.47;;;43.03;;
14528;SDS011;7351;51.194;4.098;2022-08-19T03:53:31;47.97;;;43.50;;
14528;SDS011;7351;51.194;4.098;2022-08-19T03:55:59;48.23;;;44.13;;
14528;SDS011;7351;51.194;4.098;2022-08-19T03:58:28;46.13;;;42.07;;
14528;SDS011;7351;51.194;4.098;2022-08-19T04:00:57;46.17;;;41.53;;
14528;SDS011;7351;51.194;4.098;2022-08-19T04:03:25;43.57;;;39.50;;
14528;SDS011;7351;51.194;4.098;2022-08-19T04:05:52;43.47;;;39.37;;
14528;SDS011;7351;51.194;4.098;2022-08-19T04:08:20;43.97;;;40.00;;
14528;SDS011;7351;51.194;4.098;2022-08-19T04:10:47;46.03;;;41.30;;
14528;SDS011;7351;51.194;4.098;2022-08-19T04:13:15;43.57;;;39.30;;
14528;SDS011;7351;51.194;4.098;2022-08-19T04:15:44;43.47;;;39.17;;
14528;SDS011;7351;51.194;4.098;2022-08-19T04:18:13;41.83;;;38.13;;
14528;SDS011;7351;51.194;4.098;2022-08-19T04:20:41;43.47;;;39.17;;
14528;SDS011;7351;51.194;4.098;2022-08-19T04:23:09;41.53;;;37.73;;
14528;SDS011;7351;51.194;4.098;2022-08-19T04:25:37;42.47;;;38.27;;
14528;SDS011;7351;51.194;4.098;2022-08-19T04:28:06;39.83;;;36.13;;
14528;SDS011;7351;51.194;4.098;2022-08-19T04:30:39;40.30;;;36.47;;
14528;SDS011;7351;51.194;4.098;2022-08-19T04:33:07;38.07;;;34.70;;
14528;SDS011;7351;51.194;4.098;2022-08-19T04:35:37;44.97;;;36.57;;
14528;SDS011;7351;51.194;4.098;2022-08-19T04:38:05;38.27;;;34.77;;
14528;SDS011;7351;51.194;4.098;2022-08-19T04:40:33;36.20;;;33.27;;
14528;SDS011;7351;51.194;4.098;2022-08-19T04:43:28;40.20;;;36.63;;
14528;SDS011;7351;51.194;4.098;2022-08-19T04:45:56;36.90;;;33.17;;
14528;SDS011;7351;51.194;4.098;2022-08-19T04:48:23;34.47;;;31.43;;
14528;SDS011;7351;51.194;4.098;2022-08-19T04:50:53;36.27;;;33.03;;
14528;SDS011;7351;51.194;4.098;2022-08-19T04:53:25;35.83;;;32.50;;
14528;SDS011;7351;51.194;4.098;2022-08-19T04:55:56;35.67;;;32.47;;
14528;SDS011;7351;51.194;4.098;2022-08-19T04:58:25;35.20;;;32.07;;
14528;SDS011;7351;51.194;4.098;2022-08-19T05:00:53;35.83;;;32.53;;
14528;SDS011;7351;51.194;4.098;2022-08-19T05:03:20;34.53;;;31.20;;
14528;SDS011;7351;51.194;4.098;2022-08-19T05:05:48;34.63;;;31.27;;
14528;SDS011;7351;51.194;4.098;2022-08-19T05:08:17;36.10;;;32.63;;
14528;SDS011;7351;51.194;4.098;2022-08-19T05:10:47;33.73;;;30.63;;
14528;SDS011;7351;51.194;4.098;2022-08-19T05:13:16;34.30;;;31.50;;
14528;SDS011;7351;51.194;4.098;2022-08-19T05:15:45;33.57;;;30.37;;
14528;SDS011;7351;51.194;4.098;2022-08-19T05:18:20;33.63;;;29.97;;
14528;SDS011;7351;51.194;4.098;2022-08-19T05:21:05;30.80;;;27.90;;
14528;SDS011;7351;51.194;4.098;2022-08-19T05:23:52;32.70;;;29.40;;
14528;SDS011;7351;51.194;4.098;2022-08-19T05:26:19;28.53;;;25.83;;
14528;SDS011;7351;51.194;4.098;2022-08-19T05:28:46;27.90;;;25.23;;
14528;SDS011;7351;51.194;4.098;2022-08-19T05:31:13;29.90;;;27.30;;
14528;SDS011;7351;51.194;4.098;2022-08-19T05:33:40;31.20;;;26.93;;
14528;SDS011;7351;51.194;4.098;2022-08-19T05:36:07;28.33;;;25.63;;
14528;SDS011;7351;51.194;4.098;2022-08-19T05:38:34;29.23;;;26.37;;
14528;SDS011;7351;51.194;4.098;2022-08-19T05:41:07;30.17;;;27.03;;
14528;SDS011;7351;51.194;4.098;2022-08-19T05:43:34;28.33;;;25.37;;
14528;SDS011;7351;51.194;4.098;2022-08-19T05:46:02;26.43;;;23.93;;
14528;SDS011;7351;51.194;4.098;2022-08-19T05:48:31;27.97;;;25.10;;
14528;SDS011;7351;51.194;4.098;2022-08-19T05:51:02;28.60;;;25.73;;
14528;SDS011;7351;51.194;4.098;2022-08-19T05:53:31;27.60;;;24.73;;
14528;SDS011;7351;51.194;4.098;2022-08-19T05:56:02;29.90;;;26.70;;
14528;SDS011;7351;51.194;4.098;2022-08-19T05:58:31;28.57;;;26.07;;
14528;SDS011;7351;51.194;4.098;2022-08-19T06:00:59;27.97;;;23.70;;
14528;SDS011;7351;51.194;4.098;2022-08-19T06:03:29;24.40;;;22.30;;
14528;SDS011;7351;51.194;4.098;2022-08-19T06:05:57;23.60;;;21.60;;
14528;SDS011;7351;51.194;4.098;2022-08-19T06:08:25;23.93;;;21.80;;
14528;SDS011;7351;51.194;4.098;2022-08-19T06:10:52;26.27;;;23.90;;
14528;SDS011;7351;51.194;4.098;2022-08-19T06:13:19;22.73;;;20.40;;
14528;SDS011;7351;51.194;4.098;2022-08-19T06:15:49;21.60;;;19.53;;
14528;SDS011;7351;51.194;4.098;2022-08-19T06:18:16;24.80;;;22.60;;
14528;SDS011;7351;51.194;4.098;2022-08-19T06:20:44;22.23;;;19.97;;
14528;SDS011;7351;51.194;4.098;2022-08-19T06:23:11;24.17;;;21.07;;
14528;SDS011;7351;51.194;4.098;2022-08-19T06:25:38;24.67;;;22.30;;
14528;SDS011;7351;51.194;4.098;2022-08-19T06:28:06;25.90;;;23.37;;
14528;SDS011;7351;51.194;4.098;2022-08-19T06:30:33;27.13;;;23.87;;
14528;SDS011;7351;51.194;4.098;2022-08-19T06:33:01;22.83;;;20.53;;
14528;SDS011;7351;51.194;4.098;2022-08-19T06:35:28;27.13;;;24.57;;
14528;SDS011;7351;51.194;4.098;2022-08-19T06:37:55;24.47;;;21.83;;
14528;SDS011;7351;51.194;4.098;2022-08-19T06:40:22;23.63;;;20.97;;
14528;SDS011;7351;51.194;4.098;2022-08-19T06:42:49;24.23;;;21.20;;
14528;SDS011;7351;51.194;4.098;2022-08-19T06:45:17;22.97;;;20.77;;
14528;SDS011;7351;51.194;4.098;2022-08-19T06:47:45;25.53;;;22.87;;
14528;SDS011;7351;51.194;4.098;2022-08-19T06:50:14;23.73;;;21.43;;
14528;SDS011;7351;51.194;4.098;2022-08-19T06:52:41;22.70;;;20.53;;
14528;SDS011;7351;51.194;4.098;2022-08-19T06:55:08;25.70;;;23.13;;
14528;SDS011;7351;51.194;4.098;2022-08-19T06:57:35;26.60;;;23.73;;
14528;SDS011;7351;51.194;4.098;2022-08-19T07:00:03;27.07;;;24.13;;
14528;SDS011;7351;51.194;4.098;2022-08-19T07:02:33;30.20;;;26.90;;
14528;SDS011;7351;51.194;4.098;2022-08-19T07:05:02;28.00;;;25.60;;
14528;SDS011;7351;51.194;4.098;2022-08-19T07:07:32;29.23;;;26.33;;
14528;SDS011;7351;51.194;4.098;2022-08-19T07:09:59;30.53;;;27.27;;
14528;SDS011;7351;51.194;4.098;2022-08-19T07:12:26;30.43;;;27.63;;
14528;SDS011;7351;51.194;4.098;2022-08-19T07:14:56;27.20;;;24.73;;
14528;SDS011;7351;51.194;4.098;2022-08-19T07:17:23;32.43;;;29.33;;
14528;SDS011;7351;51.194;4.098;2022-08-19T07:19:51;29.07;;;26.67;;
14528;SDS011;7351;51.194;4.098;2022-08-19T07:22:18;29.67;;;26.97;;
14528;SDS011;7351;51.194;4.098;2022-08-19T07:24:47;29.53;;;26.63;;
14528;SDS011;7351;51.194;4.098;2022-08-19T07:27:14;31.27;;;28.27;;
14528;SDS011;7351;51.194;4.098;2022-08-19T07:29:42;27.83;;;25.63;;
14528;SDS011;7351;51.194;4.098;2022-08-19T07:32:09;27.73;;;24.87;;
14528;SDS011;7351;51.194;4.098;2022-08-19T07:34:36;30.07;;;27.13;;
14528;SDS011;7351;51.194;4.098;2022-08-19T07:37:04;25.90;;;23.27;;
14528;SDS011;7351;51.194;4.098;2022-08-19T07:39:33;27.03;;;24.83;;
14528;SDS011;7351;51.194;4.098;2022-08-19T07:42:04;26.37;;;24.03;;
14528;SDS011;7351;51.194;4.098;2022-08-19T07:44:34;26.40;;;23.97;;
14528;SDS011;7351;51.194;4.098;2022-08-19T07:47:01;25.90;;;23.63;;
14528;SDS011;7351;51.194;4.098;2022-08-19T07:49:29;26.00;;;23.57;;
14528;SDS011;7351;51.194;4.098;2022-08-19T07:51:57;27.23;;;24.43;;
14528;SDS011;7351;51.194;4.098;2022-08-19T07:54:27;25.03;;;23.03;;
14528;SDS011;7351;51.194;4.098;2022-08-19T07:56:56;24.97;;;22.50;;
14528;SDS011;7351;51.194;4.098;2022-08-19T07:59:25;24.83;;;22.73;;
14528;SDS011;7351;51.194;4.098;2022-08-19T08:01:54;26.77;;;24.23;;
14528;SDS011;7351;51.194;4.098;2022-08-19T08:04:22;23.85;;;21.75;;
14528;SDS011;7351;51.194;4.098;2022-08-19T08:07:07;23.33;;;21.40;;
14528;SDS011;7351;51.194;4.098;2022-08-19T08:09:51;26.27;;;24.17;;
14528;SDS011;7351;51.194;4.098;2022-08-19T08:12:20;24.70;;;22.50;;
14528;SDS011;7351;51.194;4.098;2022-08-19T08:14:53;23.52;;;21.42;;
14528;SDS011;7351;51.194;4.098;2022-08-19T08:17:23;23.13;;;20.98;;
14528;SDS011;7351;51.194;4.098;2022-08-19T08:19:51;24.23;;;21.95;;
14528;SDS011;7351;51.194;4.098;2022-08-19T08:22:20;23.52;;;21.60;;
14528;SDS011;7351;51.194;4.098;2022-08-19T08:25:07;23.43;;;21.53;;
14528;SDS011;7351;51.194;4.098;2022-08-19T08:27:36;22.88;;;20.95;;
14528;SDS011;7351;51.194;4.098;2022-08-19T08:30:06;23.55;;;21.70;;
14528;SDS011;7351;51.194;4.098;2022-08-19T08:32:35;23.10;;;21.15;;
14528;SDS011;7351;51.194;4.098;2022-08-19T08:35:02;22.60;;;20.27;;
14528;SDS011;7351;51.194;4.098;2022-08-19T08:37:30;23.98;;;21.67;;
14528;SDS011;7351;51.194;4.098;2022-08-19T08:39:57;23.45;;;21.55;;
14528;SDS011;7351;51.194;4.098;2022-08-19T08:42:26;25.17;;;21.63;;
14528;SDS011;7351;51.194;4.098;2022-08-19T08:44:58;23.90;;;21.52;;
14528;SDS011;7351;51.194;4.098;2022-08-19T08:47:30;23.63;;;21.48;;
14528;SDS011;7351;51.194;4.098;2022-08-19T08:50:02;26.25;;;24.05;;
14528;SDS011;7351;51.194;4.098;2022-08-19T08:52:35;26.13;;;23.88;;
14528;SDS011;7351;51.194;4.098;2022-08-19T08:55:08;26.40;;;23.83;;
14528;SDS011;7351;51.194;4.098;2022-08-19T08:57:39;26.95;;;24.75;;
14528;SDS011;7351;51.194;4.098;2022-08-19T09:00:21;26.88;;;24.70;;
14528;SDS011;7351;51.194;4.098;2022-08-19T09:02:53;26.05;;;23.30;;
14528;SDS011;7351;51.194;4.098;2022-08-19T09:05:22;25.60;;;23.45;;
14528;SDS011;7351;51.194;4.098;2022-08-19T09:07:53;25.90;;;23.58;;
14528;SDS011;7351;51.194;4.098;2022-08-19T09:10:29;24.43;;;22.17;;
14528;SDS011;7351;51.194;4.098;2022-08-19T09:13:00;24.50;;;22.20;;
14528;SDS011;7351;51.194;4.098;2022-08-19T09:15:35;24.13;;;21.92;;
14528;SDS011;7351;51.194;4.098;2022-08-19T09:18:08;25.77;;;23.33;;
14528;SDS011;7351;51.194;4.098;2022-08-19T09:20:35;25.98;;;23.58;;
14528;SDS011;7351;51.194;4.098;2022-08-19T09:23:02;27.63;;;25.08;;
14528;SDS011;7351;51.194;4.098;2022-08-19T09:25:29;24.33;;;21.95;;
14528;SDS011;7351;51.194;4.098;2022-08-19T09:27:59;23.48;;;21.20;;
14528;SDS011;7351;51.194;4.098;2022-08-19T09:30:29;25.60;;;23.10;;
14528;SDS011;7351;51.194;4.098;2022-08-19T09:32:57;25.33;;;22.88;;
14528;SDS011;7351;51.194;4.098;2022-08-19T09:35:27;24.95;;;22.27;;
14528;SDS011;7351;51.194;4.098;2022-08-19T09:37:56;24.08;;;21.67;;
14528;SDS011;7351;51.194;4.098;2022-08-19T09:40:24;24.27;;;22.08;;
14528;SDS011;7351;51.194;4.098;2022-08-19T09:42:52;25.15;;;22.52;;
14528;SDS011;7351;51.194;4.098;2022-08-19T09:45:20;24.98;;;22.65;;
14528;SDS011;7351;51.194;4.098;2022-08-19T09:47:48;24.20;;;21.85;;
14528;SDS011;7351;51.194;4.098;2022-08-19T09:50:16;23.98;;;21.48;;
14528;SDS011;7351;51.194;4.098;2022-08-19T09:52:45;24.60;;;22.23;;
14528;SDS011;7351;51.194;4.098;2022-08-19T09:55:13;24.10;;;21.58;;
14528;SDS011;7351;51.194;4.098;2022-08-19T09:57:41;23.58;;;21.23;;
14528;SDS011;7351;51.194;4.098;2022-08-19T10:00:08;23.60;;;20.95;;
14528;SDS011;7351;51.194;4.098;2022-08-19T10:02:36;22.42;;;20.25;;
14528;SDS011;7351;51.194;4.098;2022-08-19T10:05:03;24.75;;;22.20;;
14528;SDS011;7351;51.194;4.098;2022-08-19T10:07:49;22.08;;;19.90;;
14528;SDS011;7351;51.194;4.098;2022-08-19T10:10:17;22.30;;;19.92;;
14528;SDS011;7351;51.194;4.098;2022-08-19T10:12:44;19.88;;;17.95;;
14528;SDS011;7351;51.194;4.098;2022-08-19T10:15:12;22.40;;;20.42;;
14528;SDS011;7351;51.194;4.098;2022-08-19T10:17:40;19.83;;;18.17;;
14528;SDS011;7351;51.194;4.098;2022-08-19T10:20:07;21.13;;;19.05;;
14528;SDS011;7351;51.194;4.098;2022-08-19T10:22:35;22.63;;;20.42;;
14528;SDS011;7351;51.194;4.098;2022-08-19T10:25:05;21.35;;;19.30;;
14528;SDS011;7351;51.194;4.098;2022-08-19T10:27:32;21.98;;;20.00;;
14528;SDS011;7351;51.194;4.098;2022-08-19T10:29:59;20.50;;;18.60;;
14528;SDS011;7351;51.194;4.098;2022-08-19T10:32:26;23.15;;;21.05;;
14528;SDS011;7351;51.194;4.098;2022-08-19T10:34:54;21.27;;;19.48;;
14528;SDS011;7351;51.194;4.098;2022-08-19T10:37:22;22.33;;;20.27;;
14528;SDS011;7351;51.194;4.098;2022-08-19T10:39:49;23.10;;;20.88;;
14528;SDS011;7351;51.194;4.098;2022-08-19T10:42:19;22.35;;;20.13;;
14528;SDS011;7351;51.194;4.098;2022-08-19T10:44:46;21.45;;;19.55;;
14528;SDS011;7351;51.194;4.098;2022-08-19T10:47:13;20.92;;;19.23;;
14528;SDS011;7351;51.194;4.098;2022-08-19T10:49:40;21.55;;;19.40;;
14528;SDS011;7351;51.194;4.098;2022-08-19T10:52:21;19.58;;;17.85;;
14528;SDS011;7351;51.194;4.098;2022-08-19T10:55:00;20.25;;;18.23;;
14528;SDS011;7351;51.194;4.098;2022-08-19T10:57:47;21.35;;;19.50;;
14528;SDS011;7351;51.194;4.098;2022-08-19T11:00:14;18.85;;;17.33;;
14528;SDS011;7351;51.194;4.098;2022-08-19T11:02:41;17.45;;;16.08;;
14528;SDS011;7351;51.194;4.098;2022-08-19T11:05:08;16.92;;;15.13;;
14528;SDS011;7351;51.194;4.098;2022-08-19T11:07:37;18.10;;;16.52;;
14528;SDS011;7351;51.194;4.098;2022-08-19T11:10:04;17.95;;;16.50;;
14528;SDS011;7351;51.194;4.098;2022-08-19T11:12:32;18.17;;;16.55;;
14528;SDS011;7351;51.194;4.098;2022-08-19T11:15:01;17.35;;;15.93;;
14528;SDS011;7351;51.194;4.098;2022-08-19T11:17:28;17.50;;;15.63;;
14528;SDS011;7351;51.194;4.098;2022-08-19T11:19:56;17.25;;;15.95;;
14528;SDS011;7351;51.194;4.098;2022-08-19T11:22:24;14.65;;;13.27;;
14528;SDS011;7351;51.194;4.098;2022-08-19T11:24:51;14.30;;;13.27;;
14528;SDS011;7351;51.194;4.098;2022-08-19T11:27:19;13.95;;;12.85;;
14528;SDS011;7351;51.194;4.098;2022-08-19T11:29:46;13.68;;;12.73;;
14528;SDS011;7351;51.194;4.098;2022-08-19T11:32:14;15.43;;;14.30;;
14528;SDS011;7351;51.194;4.098;2022-08-19T11:34:41;13.90;;;12.68;;
14528;SDS011;7351;51.194;4.098;2022-08-19T11:37:08;12.52;;;11.57;;
14528;SDS011;7351;51.194;4.098;2022-08-19T11:39:36;11.23;;;10.52;;
14528;SDS011;7351;51.194;4.098;2022-08-19T11:42:04;11.35;;;10.35;;
14528;SDS011;7351;51.194;4.098;2022-08-19T11:44:47;10.57;;;9.50;;
14528;SDS011;7351;51.194;4.098;2022-08-19T11:47:15;10.13;;;9.35;;
14528;SDS011;7351;51.194;4.098;2022-08-19T11:49:42;9.75;;;9.02;;
14528;SDS011;7351;51.194;4.098;2022-08-19T11:52:09;9.45;;;8.70;;
14528;SDS011;7351;51.194;4.098;2022-08-19T11:54:36;9.65;;;8.82;;
14528;SDS011;7351;51.194;4.098;2022-08-19T11:57:04;9.55;;;8.68;;
14528;SDS011;7351;51.194;4.098;2022-08-19T11:59:31;10.05;;;9.20;;
14528;SDS011;7351;51.194;4.098;2022-08-19T12:01:58;11.02;;;10.02;;
14528;SDS011;7351;51.194;4.098;2022-08-19T12:04:26;10.00;;;9.27;;
14528;SDS011;7351;51.194;4.098;2022-08-19T12:06:53;10.45;;;9.65;;
14528;SDS011;7351;51.194;4.098;2022-08-19T12:09:20;9.57;;;8.93;;
14528;SDS011;7351;51.194;4.098;2022-08-19T12:11:47;8.60;;;7.90;;
14528;SDS011;7351;51.194;4.098;2022-08-19T12:14:15;8.93;;;8.32;;
14528;SDS011;7351;51.194;4.098;2022-08-19T12:16:43;8.73;;;8.10;;
14528;SDS011;7351;51.194;4.098;2022-08-19T12:19:11;7.50;;;7.03;;
14528;SDS011;7351;51.194;4.098;2022-08-19T12:21:40;6.72;;;6.22;;
14528;SDS011;7351;51.194;4.098;2022-08-19T12:24:07;6.88;;;6.40;;
14528;SDS011;7351;51.194;4.098;2022-08-19T12:26:34;5.63;;;5.22;;
14528;SDS011;7351;51.194;4.098;2022-08-19T12:29:02;5.70;;;5.18;;
14528;SDS011;7351;51.194;4.098;2022-08-19T12:31:30;6.93;;;6.28;;
14528;SDS011;7351;51.194;4.098;2022-08-19T12:33:57;6.50;;;6.00;;
14528;SDS011;7351;51.194;4.098;2022-08-19T12:36:26;7.63;;;7.00;;
14528;SDS011;7351;51.194;4.098;2022-08-19T12:38:54;7.13;;;6.63;;
14528;SDS011;7351;51.194;4.098;2022-08-19T12:41:23;6.75;;;6.28;;
14528;SDS011;7351;51.194;4.098;2022-08-19T12:43:50;5.88;;;5.38;;
14528;SDS011;7351;51.194;4.098;2022-08-19T12:46:18;5.95;;;4.85;;
14528;SDS011;7351;51.194;4.098;2022-08-19T12:48:45;4.75;;;4.35;;
14528;SDS011;7351;51.194;4.098;2022-08-19T12:51:14;4.35;;;3.97;;
14528;SDS011;7351;51.194;4.098;2022-08-19T12:53:44;5.47;;;4.65;;
14528;SDS011;7351;51.194;4.098;2022-08-19T12:56:13;6.95;;;4.45;;
14528;SDS011;7351;51.194;4.098;2022-08-19T12:58:42;4.70;;;4.40;;
14528;SDS011;7351;51.194;4.098;2022-08-19T13:01:11;4.00;;;3.80;;
14528;SDS011;7351;51.194;4.098;2022-08-19T13:03:39;5.05;;;4.60;;
14528;SDS011;7351;51.194;4.098;2022-08-19T13:06:06;4.00;;;3.75;;
14528;SDS011;7351;51.194;4.098;2022-08-19T13:08:34;5.68;;;4.97;;
14528;SDS011;7351;51.194;4.098;2022-08-19T13:11:09;4.53;;;4.15;;
14528;SDS011;7351;51.194;4.098;2022-08-19T13:13:40;3.70;;;3.50;;
14528;SDS011;7351;51.194;4.098;2022-08-19T13:16:09;3.05;;;2.60;;
14528;SDS011;7351;51.194;4.098;2022-08-19T13:18:37;3.55;;;3.30;;
14528;SDS011;7351;51.194;4.098;2022-08-19T13:21:05;3.75;;;3.45;;
14528;SDS011;7351;51.194;4.098;2022-08-19T13:23:34;3.08;;;2.88;;
14528;SDS011;7351;51.194;4.098;2022-08-19T13:26:03;3.45;;;3.25;;
14528;SDS011;7351;51.194;4.098;2022-08-19T13:28:32;3.20;;;2.65;;
14528;SDS011;7351;51.194;4.098;2022-08-19T13:31:16;2.67;;;2.47;;
14528;SDS011;7351;51.194;4.098;2022-08-19T13:34:01;3.30;;;2.97;;
14528;SDS011;7351;51.194;4.098;2022-08-19T13:36:28;2.65;;;2.45;;
14528;SDS011;7351;51.194;4.098;2022-08-19T13:38:55;3.15;;;2.95;;
14528;SDS011;7351;51.194;4.098;2022-08-19T13:41:22;3.53;;;3.08;;
14528;SDS011;7351;51.194;4.098;2022-08-19T13:43:50;4.40;;;3.25;;
14528;SDS011;7351;51.194;4.098;2022-08-19T13:46:18;3.35;;;3.15;;
14528;SDS011;7351;51.194;4.098;2022-08-19T13:48:46;2.85;;;2.65;;
14528;SDS011;7351;51.194;4.098;2022-08-19T13:51:13;3.28;;;2.88;;
14528;SDS011;7351;51.194;4.098;2022-08-19T13:53:41;4.97;;;2.90;;
14528;SDS011;7351;51.194;4.098;2022-08-19T13:56:10;2.83;;;2.65;;
14528;SDS011;7351;51.194;4.098;2022-08-19T13:58:39;3.55;;;3.22;;
14528;SDS011;7351;51.194;4.098;2022-08-19T14:01:06;3.63;;;3.33;;
14528;SDS011;7351;51.194;4.098;2022-08-19T14:03:35;3.80;;;3.58;;
14528;SDS011;7351;51.194;4.098;2022-08-19T14:06:03;6.63;;;2.78;;
14528;SDS011;7351;51.194;4.098;2022-08-19T14:08:30;3.28;;;2.88;;
14528;SDS011;7351;51.194;4.098;2022-08-19T14:10:59;3.20;;;2.67;;
14528;SDS011;7351;51.194;4.098;2022-08-19T14:13:26;2.33;;;2.17;;
14528;SDS011;7351;51.194;4.098;2022-08-19T14:15:53;4.88;;;2.08;;
14528;SDS011;7351;51.194;4.098;2022-08-19T14:18:20;2.30;;;2.10;;
14528;SDS011;7351;51.194;4.098;2022-08-19T14:20:48;8.48;;;2.80;;
14528;SDS011;7351;51.194;4.098;2022-08-19T14:23:15;5.68;;;3.67;;
14528;SDS011;7351;51.194;4.098;2022-08-19T14:25:43;8.50;;;3.42;;
14528;SDS011;7351;51.194;4.098;2022-08-19T14:28:11;10.30;;;3.25;;
14528;SDS011;7351;51.194;4.098;2022-08-19T14:30:38;8.85;;;3.53;;
14528;SDS011;7351;51.194;4.098;2022-08-19T14:33:05;4.97;;;3.20;;
14528;SDS011;7351;51.194;4.098;2022-08-19T14:35:33;4.13;;;3.10;;
14528;SDS011;7351;51.194;4.098;2022-08-19T14:38:02;4.10;;;2.85;;
14528;SDS011;7351;51.194;4.098;2022-08-19T14:40:30;6.65;;;3.88;;
14528;SDS011;7351;51.194;4.098;2022-08-19T14:42:59;3.22;;;2.53;;
14528;SDS011;7351;51.194;4.098;2022-08-19T14:45:29;7.88;;;2.28;;
14528;SDS011;7351;51.194;4.098;2022-08-19T14:47:57;3.17;;;2.65;;
14528;SDS011;7351;51.194;4.098;2022-08-19T14:50:25;2.78;;;2.50;;